sensor_id;sensor_type;location;lat;lon;timestamp;temperature;humidity
75105;DHT22;64778;47.314;8.466;2023-02-22T00:00:52;6.00;82.50
75105;DHT22;64778;47.314;8.466;2023-02-22T00:03:26;5.90;83.20
75105;DHT22;64778;47.314;8.466;2023-02-22T00:05:53;6.00;82.50
75105;DHT22;64778;47.314;8.466;2023-02-22T00:08:26;6.10;82.30
75105;DHT22;64778;47.314;8.466;2023-02-22T00:11:02;6.10;81.50
75105;DHT22;64778;47.314;8.466;2023-02-22T00:13:32;6.10;81.00
75105;DHT22;64778;47.314;8.466;2023-02-22T00:16:03;6.10;81.40
75105;DHT22;64778;47.314;8.466;2023-02-22T00:18:29;6.10;81.30
75105;DHT22;64778;47.314;8.466;2023-02-22T00:20:56;6.10;81.20
75105;DHT22;64778;47.314;8.466;2023-02-22T00:23:26;6.00;81.50
75105;DHT22;64778;47.314;8.466;2023-02-22T00:25:58;6.00;81.30
75105;DHT22;64778;47.314;8.466;2023-02-22T00:28:24;6.00;81.10
75105;DHT22;64778;47.314;8.466;2023-02-22T00:30:52;6.00;81.10
75105;DHT22;64778;47.314;8.466;2023-02-22T00:33:19;6.00;81.00
75105;DHT22;64778;47.314;8.466;2023-02-22T00:35:47;6.00;81.50
75105;DHT22;64778;47.314;8.466;2023-02-22T00:38:19;6.00;81.60
75105;DHT22;64778;47.314;8.466;2023-02-22T00:40:47;5.90;80.80
75105;DHT22;64778;47.314;8.466;2023-02-22T00:43:15;6.00;81.20
75105;DHT22;64778;47.314;8.466;2023-02-22T00:45:43;6.00;81.50
75105;DHT22;64778;47.314;8.466;2023-02-22T00:48:11;5.90;81.10
75105;DHT22;64778;47.314;8.466;2023-02-22T00:50:40;6.00;81.30
75105;DHT22;64778;47.314;8.466;2023-02-22T00:53:06;5.90;80.80
75105;DHT22;64778;47.314;8.466;2023-02-22T00:55:37;5.90;80.70
75105;DHT22;64778;47.314;8.466;2023-02-22T00:58:07;5.80;80.30
75105;DHT22;64778;47.314;8.466;2023-02-22T01:00:38;5.80;80.30
75105;DHT22;64778;47.314;8.466;2023-02-22T01:03:05;5.80;80.60
75105;DHT22;64778;47.314;8.466;2023-02-22T01:05:35;5.70;80.60
75105;DHT22;64778;47.314;8.466;2023-02-22T01:08:06;5.70;80.50
75105;DHT22;64778;47.314;8.466;2023-02-22T01:10:35;5.70;80.20
75105;DHT22;64778;47.314;8.466;2023-02-22T01:13:01;5.60;80.40
75105;DHT22;64778;47.314;8.466;2023-02-22T01:15:33;5.60;80.50
75105;DHT22;64778;47.314;8.466;2023-02-22T01:17:59;5.50;80.60
75105;DHT22;64778;47.314;8.466;2023-02-22T01:20:27;5.50;80.60
75105;DHT22;64778;47.314;8.466;2023-02-22T01:22:57;5.50;81.10
75105;DHT22;64778;47.314;8.466;2023-02-22T01:25:26;5.40;81.80
75105;DHT22;64778;47.314;8.466;2023-02-22T01:27:55;5.40;81.20
75105;DHT22;64778;47.314;8.466;2023-02-22T01:30:29;5.40;82.20
75105;DHT22;64778;47.314;8.466;2023-02-22T01:32:57;5.40;82.50
75105;DHT22;64778;47.314;8.466;2023-02-22T01:35:28;5.50;82.00
75105;DHT22;64778;47.314;8.466;2023-02-22T01:37:54;5.50;81.80
75105;DHT22;64778;47.314;8.466;2023-02-22T01:40:25;5.50;81.20
75105;DHT22;64778;47.314;8.466;2023-02-22T01:43:00;5.50;81.10
75105;DHT22;64778;47.314;8.466;2023-02-22T01:51:30;5.40;81.60
75105;DHT22;64778;47.314;8.466;2023-02-22T01:53:53;5.40;81.70
75105;DHT22;64778;47.314;8.466;2023-02-22T01:56:24;5.30;82.60
75105;DHT22;64778;47.314;8.466;2023-02-22T01:59:01;5.20;82.40
75105;DHT22;64778;47.314;8.466;2023-02-22T02:01:28;5.20;81.80
75105;DHT22;64778;47.314;8.466;2023-02-22T02:04:05;5.20;82.50
75105;DHT22;64778;47.314;8.466;2023-02-22T02:06:36;5.10;81.70
75105;DHT22;64778;47.314;8.466;2023-02-22T02:11:32;5.10;81.90
75105;DHT22;64778;47.314;8.466;2023-02-22T02:13:58;5.10;81.90
75105;DHT22;64778;47.314;8.466;2023-02-22T02:16:37;5.10;81.70
75105;DHT22;64778;47.314;8.466;2023-02-22T02:19:14;5.00;81.10
75105;DHT22;64778;47.314;8.466;2023-02-22T02:27:23;4.90;81.80
75105;DHT22;64778;47.314;8.466;2023-02-22T02:46:11;4.80;81.70
75105;DHT22;64778;47.314;8.466;2023-02-22T02:48:42;4.80;81.40
75105;DHT22;64778;47.314;8.466;2023-02-22T02:51:13;4.80;81.70
75105;DHT22;64778;47.314;8.466;2023-02-22T02:53:44;4.80;81.70
75105;DHT22;64778;47.314;8.466;2023-02-22T02:56:10;4.80;82.00
75105;DHT22;64778;47.314;8.466;2023-02-22T02:58:47;4.70;82.60
75105;DHT22;64778;47.314;8.466;2023-02-22T03:01:29;4.70;82.80
75105;DHT22;64778;47.314;8.466;2023-02-22T03:04:04;4.60;83.20
75105;DHT22;64778;47.314;8.466;2023-02-22T03:07:12;4.60;82.90
75105;DHT22;64778;47.314;8.466;2023-02-22T03:12:47;4.60;82.70
75105;DHT22;64778;47.314;8.466;2023-02-22T03:15:49;4.50;82.50
75105;DHT22;64778;47.314;8.466;2023-02-22T03:18:18;4.50;82.30
75105;DHT22;64778;47.314;8.466;2023-02-22T03:26:38;4.40;83.40
75105;DHT22;64778;47.314;8.466;2023-02-22T03:29:10;4.40;83.10
75105;DHT22;64778;47.314;8.466;2023-02-22T03:31:44;4.40;83.20
75105;DHT22;64778;47.314;8.466;2023-02-22T03:34:19;4.40;83.20
75105;DHT22;64778;47.314;8.466;2023-02-22T03:37:02;4.40;83.30
75105;DHT22;64778;47.314;8.466;2023-02-22T03:39:35;4.40;83.30
75105;DHT22;64778;47.314;8.466;2023-02-22T03:42:28;4.40;82.90
75105;DHT22;64778;47.314;8.466;2023-02-22T03:44:57;4.40;82.80
75105;DHT22;64778;47.314;8.466;2023-02-22T03:47:34;4.40;83.20
75105;DHT22;64778;47.314;8.466;2023-02-22T03:50:20;4.50;82.80
75105;DHT22;64778;47.314;8.466;2023-02-22T03:52:49;4.50;82.90
75105;DHT22;64778;47.314;8.466;2023-02-22T03:55:18;4.50;82.80
75105;DHT22;64778;47.314;8.466;2023-02-22T03:57:49;4.50;83.00
75105;DHT22;64778;47.314;8.466;2023-02-22T04:00:21;4.50;83.20
75105;DHT22;64778;47.314;8.466;2023-02-22T04:02:47;4.50;83.00
75105;DHT22;64778;47.314;8.466;2023-02-22T04:05:13;4.50;82.80
75105;DHT22;64778;47.314;8.466;2023-02-22T04:07:40;4.50;83.30
75105;DHT22;64778;47.314;8.466;2023-02-22T04:10:09;4.50;83.20
75105;DHT22;64778;47.314;8.466;2023-02-22T04:12:35;4.50;83.20
75105;DHT22;64778;47.314;8.466;2023-02-22T04:15:02;4.50;83.70
75105;DHT22;64778;47.314;8.466;2023-02-22T04:17:32;4.50;83.60
75105;DHT22;64778;47.314;8.466;2023-02-22T04:19:58;4.60;83.00
75105;DHT22;64778;47.314;8.466;2023-02-22T04:22:26;4.60;83.10
75105;DHT22;64778;47.314;8.466;2023-02-22T04:24:52;4.60;83.40
75105;DHT22;64778;47.314;8.466;2023-02-22T04:27:18;4.60;83.20
75105;DHT22;64778;47.314;8.466;2023-02-22T04:29:46;4.60;83.20
75105;DHT22;64778;47.314;8.466;2023-02-22T04:32:14;4.50;83.00
75105;DHT22;64778;47.314;8.466;2023-02-22T04:34:40;4.50;83.00
75105;DHT22;64778;47.314;8.466;2023-02-22T04:37:10;4.40;83.30
75105;DHT22;64778;47.314;8.466;2023-02-22T04:39:39;4.40;83.30
75105;DHT22;64778;47.314;8.466;2023-02-22T04:42:04;4.40;84.10
75105;DHT22;64778;47.314;8.466;2023-02-22T04:44:30;4.40;84.10
75105;DHT22;64778;47.314;8.466;2023-02-22T04:46:56;4.40;83.70
75105;DHT22;64778;47.314;8.466;2023-02-22T04:49:22;4.50;83.30
75105;DHT22;64778;47.314;8.466;2023-02-22T04:51:50;4.40;83.20
75105;DHT22;64778;47.314;8.466;2023-02-22T04:54:22;4.50;83.00
75105;DHT22;64778;47.314;8.466;2023-02-22T04:56:48;4.40;83.00
75105;DHT22;64778;47.314;8.466;2023-02-22T04:59:14;4.40;83.10
75105;DHT22;64778;47.314;8.466;2023-02-22T05:01:42;4.40;83.20
75105;DHT22;64778;47.314;8.466;2023-02-22T05:04:10;4.40;83.20
75105;DHT22;64778;47.314;8.466;2023-02-22T05:06:38;4.40;83.20
75105;DHT22;64778;47.314;8.466;2023-02-22T05:09:07;4.40;83.10
75105;DHT22;64778;47.314;8.466;2023-02-22T05:11:32;4.40;83.10
75105;DHT22;64778;47.314;8.466;2023-02-22T05:14:01;4.40;82.90
75105;DHT22;64778;47.314;8.466;2023-02-22T05:16:26;4.40;82.90
75105;DHT22;64778;47.314;8.466;2023-02-22T05:18:52;4.40;83.10
75105;DHT22;64778;47.314;8.466;2023-02-22T05:21:20;4.40;82.90
75105;DHT22;64778;47.314;8.466;2023-02-22T05:23:46;4.30;82.80
75105;DHT22;64778;47.314;8.466;2023-02-22T05:26:18;4.30;83.50
75105;DHT22;64778;47.314;8.466;2023-02-22T05:28:44;4.30;83.10
75105;DHT22;64778;47.314;8.466;2023-02-22T05:31:09;4.30;83.00
75105;DHT22;64778;47.314;8.466;2023-02-22T05:33:37;4.30;82.50
75105;DHT22;64778;47.314;8.466;2023-02-22T05:36:04;4.40;82.30
75105;DHT22;64778;47.314;8.466;2023-02-22T05:38:32;4.30;82.50
75105;DHT22;64778;47.314;8.466;2023-02-22T05:40:59;4.30;82.90
75105;DHT22;64778;47.314;8.466;2023-02-22T05:43:28;4.20;82.70
75105;DHT22;64778;47.314;8.466;2023-02-22T05:45:55;4.20;83.40
75105;DHT22;64778;47.314;8.466;2023-02-22T05:48:23;4.20;83.20
75105;DHT22;64778;47.314;8.466;2023-02-22T05:50:49;4.20;83.20
75105;DHT22;64778;47.314;8.466;2023-02-22T05:53:17;4.20;83.30
75105;DHT22;64778;47.314;8.466;2023-02-22T05:55:43;4.20;83.00
75105;DHT22;64778;47.314;8.466;2023-02-22T05:58:08;4.20;82.90
75105;DHT22;64778;47.314;8.466;2023-02-22T06:00:36;4.20;83.20
75105;DHT22;64778;47.314;8.466;2023-02-22T06:03:04;4.20;83.10
75105;DHT22;64778;47.314;8.466;2023-02-22T06:05:33;4.10;83.30
75105;DHT22;64778;47.314;8.466;2023-02-22T06:08:01;4.10;83.10
75105;DHT22;64778;47.314;8.466;2023-02-22T06:10:30;4.20;83.00
75105;DHT22;64778;47.314;8.466;2023-02-22T06:12:56;4.10;83.30
75105;DHT22;64778;47.314;8.466;2023-02-22T06:15:26;4.00;83.50
75105;DHT22;64778;47.314;8.466;2023-02-22T06:17:58;4.00;83.70
75105;DHT22;64778;47.314;8.466;2023-02-22T06:20:26;4.00;83.50
75105;DHT22;64778;47.314;8.466;2023-02-22T06:22:56;4.00;83.50
75105;DHT22;64778;47.314;8.466;2023-02-22T06:25:27;4.00;83.50
75105;DHT22;64778;47.314;8.466;2023-02-22T06:27:53;4.00;83.60
75105;DHT22;64778;47.314;8.466;2023-02-22T06:30:22;4.00;83.50
75105;DHT22;64778;47.314;8.466;2023-02-22T06:32:53;4.00;83.60
75105;DHT22;64778;47.314;8.466;2023-02-22T06:35:19;4.00;83.60
75105;DHT22;64778;47.314;8.466;2023-02-22T06:37:45;4.00;83.40
75105;DHT22;64778;47.314;8.466;2023-02-22T06:40:16;4.10;83.40
75105;DHT22;64778;47.314;8.466;2023-02-22T06:42:42;4.10;83.20
75105;DHT22;64778;47.314;8.466;2023-02-22T06:45:11;4.10;83.10
75105;DHT22;64778;47.314;8.466;2023-02-22T06:47:38;4.20;82.80
75105;DHT22;64778;47.314;8.466;2023-02-22T06:50:18;4.20;82.60
75105;DHT22;64778;47.314;8.466;2023-02-22T06:52:46;4.30;82.50
75105;DHT22;64778;47.314;8.466;2023-02-22T06:55:16;4.30;82.50
75105;DHT22;64778;47.314;8.466;2023-02-22T06:57:48;4.30;82.50
75105;DHT22;64778;47.314;8.466;2023-02-22T07:00:21;4.30;82.50
75105;DHT22;64778;47.314;8.466;2023-02-22T07:02:50;4.40;82.90
75105;DHT22;64778;47.314;8.466;2023-02-22T07:05:21;4.40;82.50
75105;DHT22;64778;47.314;8.466;2023-02-22T07:07:48;4.50;82.60
75105;DHT22;64778;47.314;8.466;2023-02-22T07:10:25;4.50;82.40
75105;DHT22;64778;47.314;8.466;2023-02-22T07:12:52;4.60;82.30
75105;DHT22;64778;47.314;8.466;2023-02-22T07:15:19;4.60;82.30
75105;DHT22;64778;47.314;8.466;2023-02-22T07:17:51;4.60;82.30
75105;DHT22;64778;47.314;8.466;2023-02-22T07:20:20;4.70;82.20
75105;DHT22;64778;47.314;8.466;2023-02-22T07:22:46;4.60;82.50
75105;DHT22;64778;47.314;8.466;2023-02-22T07:25:14;4.80;82.40
75105;DHT22;64778;47.314;8.466;2023-02-22T07:27:41;4.90;82.10
75105;DHT22;64778;47.314;8.466;2023-02-22T07:32:42;5.10;81.50
75105;DHT22;64778;47.314;8.466;2023-02-22T07:35:20;5.20;81.40
75105;DHT22;64778;47.314;8.466;2023-02-22T07:37:50;5.30;81.20
75105;DHT22;64778;47.314;8.466;2023-02-22T07:40:17;5.40;81.00
75105;DHT22;64778;47.314;8.466;2023-02-22T07:43:00;5.50;80.80
75105;DHT22;64778;47.314;8.466;2023-02-22T07:45:29;5.60;80.80
75105;DHT22;64778;47.314;8.466;2023-02-22T07:47:55;5.70;80.40
75105;DHT22;64778;47.314;8.466;2023-02-22T07:50:22;5.90;80.10
75105;DHT22;64778;47.314;8.466;2023-02-22T07:52:51;6.10;79.70
75105;DHT22;64778;47.314;8.466;2023-02-22T07:55:21;6.20;79.10
75105;DHT22;64778;47.314;8.466;2023-02-22T07:57:51;6.40;78.80
75105;DHT22;64778;47.314;8.466;2023-02-22T08:00:28;6.60;78.50
75105;DHT22;64778;47.314;8.466;2023-02-22T08:03:00;6.80;78.40
75105;DHT22;64778;47.314;8.466;2023-02-22T08:05:28;6.90;78.60
75105;DHT22;64778;47.314;8.466;2023-02-22T08:07:54;7.10;77.80
75105;DHT22;64778;47.314;8.466;2023-02-22T08:10:24;7.20;77.50
75105;DHT22;64778;47.314;8.466;2023-02-22T08:12:50;7.20;76.00
75105;DHT22;64778;47.314;8.466;2023-02-22T08:15:20;7.30;75.50
75105;DHT22;64778;47.314;8.466;2023-02-22T08:17:50;7.40;74.60
75105;DHT22;64778;47.314;8.466;2023-02-22T08:20:16;7.30;74.90
75105;DHT22;64778;47.314;8.466;2023-02-22T08:22:47;7.40;75.30
75105;DHT22;64778;47.314;8.466;2023-02-22T08:25:15;7.20;75.30
75105;DHT22;64778;47.314;8.466;2023-02-22T08:27:42;7.20;76.60
75105;DHT22;64778;47.314;8.466;2023-02-22T08:30:14;7.40;75.60
75105;DHT22;64778;47.314;8.466;2023-02-22T08:32:42;7.40;75.80
75105;DHT22;64778;47.314;8.466;2023-02-22T08:35:08;7.30;76.50
75105;DHT22;64778;47.314;8.466;2023-02-22T08:37:36;7.60;75.10
75105;DHT22;64778;47.314;8.466;2023-02-22T08:40:02;7.60;75.20
75105;DHT22;64778;47.314;8.466;2023-02-22T08:42:27;7.70;76.50
75105;DHT22;64778;47.314;8.466;2023-02-22T08:44:55;7.70;77.50
75105;DHT22;64778;47.314;8.466;2023-02-22T08:47:21;7.90;76.60
75105;DHT22;64778;47.314;8.466;2023-02-22T08:49:49;7.80;76.20
75105;DHT22;64778;47.314;8.466;2023-02-22T08:52:14;7.90;75.70
75105;DHT22;64778;47.314;8.466;2023-02-22T08:54:43;8.10;74.40
75105;DHT22;64778;47.314;8.466;2023-02-22T08:57:09;8.10;74.90
75105;DHT22;64778;47.314;8.466;2023-02-22T08:59:37;8.30;73.90
75105;DHT22;64778;47.314;8.466;2023-02-22T09:02:09;8.40;73.70
75105;DHT22;64778;47.314;8.466;2023-02-22T09:04:38;8.30;73.50
75105;DHT22;64778;47.314;8.466;2023-02-22T09:07:03;8.40;73.30
75105;DHT22;64778;47.314;8.466;2023-02-22T09:09:29;8.60;72.40
75105;DHT22;64778;47.314;8.466;2023-02-22T09:11:57;8.60;72.00
75105;DHT22;64778;47.314;8.466;2023-02-22T09:14:22;8.80;72.20
75105;DHT22;64778;47.314;8.466;2023-02-22T09:16:50;8.90;70.10
75105;DHT22;64778;47.314;8.466;2023-02-22T09:19:16;9.00;70.10
75105;DHT22;64778;47.314;8.466;2023-02-22T09:21:41;9.20;69.30
75105;DHT22;64778;47.314;8.466;2023-02-22T09:24:07;9.40;67.80
75105;DHT22;64778;47.314;8.466;2023-02-22T09:26:37;9.40;68.50
75105;DHT22;64778;47.314;8.466;2023-02-22T09:29:09;9.30;68.50
75105;DHT22;64778;47.314;8.466;2023-02-22T09:31:39;9.40;68.10
75105;DHT22;64778;47.314;8.466;2023-02-22T09:34:06;9.50;69.70
75105;DHT22;64778;47.314;8.466;2023-02-22T09:36:43;9.60;69.40
75105;DHT22;64778;47.314;8.466;2023-02-22T09:39:11;9.80;70.30
75105;DHT22;64778;47.314;8.466;2023-02-22T09:42:09;10.10;69.80
75105;DHT22;64778;47.314;8.466;2023-02-22T09:44:49;10.10;70.30
75105;DHT22;64778;47.314;8.466;2023-02-22T09:47:23;10.30;70.50
75105;DHT22;64778;47.314;8.466;2023-02-22T09:50:16;10.20;69.70
75105;DHT22;64778;47.314;8.466;2023-02-22T09:52:55;10.20;70.80
75105;DHT22;64778;47.314;8.466;2023-02-22T09:58:02;10.00;72.40
75105;DHT22;64778;47.314;8.466;2023-02-22T10:00:40;10.20;72.30
75105;DHT22;64778;47.314;8.466;2023-02-22T10:06:01;10.40;71.30
75105;DHT22;64778;47.314;8.466;2023-02-22T10:08:31;10.50;70.50
75105;DHT22;64778;47.314;8.466;2023-02-22T10:14:00;10.60;70.40
75105;DHT22;64778;47.314;8.466;2023-02-22T10:16:48;10.90;69.30
75105;DHT22;64778;47.314;8.466;2023-02-22T10:27:29;11.80;66.90
75105;DHT22;64778;47.314;8.466;2023-02-22T10:32:41;12.00;67.30
75105;DHT22;64778;47.314;8.466;2023-02-22T10:35:32;12.30;66.00
75105;DHT22;64778;47.314;8.466;2023-02-22T10:38:09;12.50;65.60
75105;DHT22;64778;47.314;8.466;2023-02-22T10:40:38;12.60;64.80
75105;DHT22;64778;47.314;8.466;2023-02-22T10:43:05;12.80;63.80
75105;DHT22;64778;47.314;8.466;2023-02-22T10:45:40;12.10;66.70
75105;DHT22;64778;47.314;8.466;2023-02-22T10:48:12;12.30;66.40
75105;DHT22;64778;47.314;8.466;2023-02-22T10:50:41;12.30;67.40
75105;DHT22;64778;47.314;8.466;2023-02-22T10:53:08;12.20;67.40
75105;DHT22;64778;47.314;8.466;2023-02-22T10:55:35;12.70;66.10
75105;DHT22;64778;47.314;8.466;2023-02-22T10:58:04;13.20;64.80
75105;DHT22;64778;47.314;8.466;2023-02-22T11:00:37;13.50;63.10
75105;DHT22;64778;47.314;8.466;2023-02-22T11:03:20;14.00;62.30
75105;DHT22;64778;47.314;8.466;2023-02-22T11:05:46;13.50;63.30
75105;DHT22;64778;47.314;8.466;2023-02-22T11:11:02;13.00;66.00
75105;DHT22;64778;47.314;8.466;2023-02-22T11:13:32;13.30;64.40
75105;DHT22;64778;47.314;8.466;2023-02-22T11:18:42;14.30;61.60
75105;DHT22;64778;47.314;8.466;2023-02-22T11:21:09;14.60;60.80
75105;DHT22;64778;47.314;8.466;2023-02-22T11:23:40;14.00;61.70
75105;DHT22;64778;47.314;8.466;2023-02-22T11:26:12;14.30;61.00
75105;DHT22;64778;47.314;8.466;2023-02-22T11:28:51;14.40;61.70
75105;DHT22;64778;47.314;8.466;2023-02-22T11:31:21;14.70;60.90
75105;DHT22;64778;47.314;8.466;2023-02-22T11:33:59;15.10;60.10
75105;DHT22;64778;47.314;8.466;2023-02-22T11:36:40;15.40;59.60
75105;DHT22;64778;47.314;8.466;2023-02-22T11:39:29;15.20;59.60
75105;DHT22;64778;47.314;8.466;2023-02-22T11:41:57;15.80;58.90
75105;DHT22;64778;47.314;8.466;2023-02-22T11:44:28;16.20;56.50
75105;DHT22;64778;47.314;8.466;2023-02-22T11:47:02;16.10;56.40
75105;DHT22;64778;47.314;8.466;2023-02-22T11:49:38;16.30;56.70
75105;DHT22;64778;47.314;8.466;2023-02-22T11:52:23;16.00;56.80
75105;DHT22;64778;47.314;8.466;2023-02-22T12:08:50;15.20;59.90
75105;DHT22;64778;47.314;8.466;2023-02-22T12:19:42;15.70;59.30
75105;DHT22;64778;47.314;8.466;2023-02-22T12:22:26;15.90;59.50
75105;DHT22;64778;47.314;8.466;2023-02-22T12:27:56;17.20;54.70
75105;DHT22;64778;47.314;8.466;2023-02-22T12:30:29;17.50;54.80
75105;DHT22;64778;47.314;8.466;2023-02-22T12:32:59;18.00;52.30
75105;DHT22;64778;47.314;8.466;2023-02-22T12:35:33;18.60;50.20
75105;DHT22;64778;47.314;8.466;2023-02-22T12:43:50;16.30;52.30
75105;DHT22;64778;47.314;8.466;2023-02-22T12:46:23;14.90;56.90
75105;DHT22;64778;47.314;8.466;2023-02-22T12:54:03;17.10;53.40
75105;DHT22;64778;47.314;8.466;2023-02-22T12:59:36;17.70;49.40
75105;DHT22;64778;47.314;8.466;2023-02-22T13:05:15;17.00;51.00
75105;DHT22;64778;47.314;8.466;2023-02-22T13:14:06;16.60;51.90
75105;DHT22;64778;47.314;8.466;2023-02-22T13:16:58;16.50;52.10
75105;DHT22;64778;47.314;8.466;2023-02-22T13:22:14;16.70;51.60
75105;DHT22;64778;47.314;8.466;2023-02-22T13:27:43;16.40;52.20
75105;DHT22;64778;47.314;8.466;2023-02-22T13:30:18;16.30;52.30
75105;DHT22;64778;47.314;8.466;2023-02-22T13:41:21;18.90;46.80
75105;DHT22;64778;47.314;8.466;2023-02-22T13:44:20;20.20;44.20
75105;DHT22;64778;47.314;8.466;2023-02-22T13:47:28;20.00;44.30
75105;DHT22;64778;47.314;8.466;2023-02-22T13:52:49;18.00;48.20
75105;DHT22;64778;47.314;8.466;2023-02-22T13:55:23;17.20;48.10
75105;DHT22;64778;47.314;8.466;2023-02-22T13:58:02;17.20;47.90
75105;DHT22;64778;47.314;8.466;2023-02-22T14:00:47;17.40;47.60
75105;DHT22;64778;47.314;8.466;2023-02-22T14:10:48;17.40;48.60
75105;DHT22;64778;47.314;8.466;2023-02-22T14:13:19;18.30;47.00
75105;DHT22;64778;47.314;8.466;2023-02-22T14:18:44;18.80;44.50
75105;DHT22;64778;47.314;8.466;2023-02-22T14:23:45;18.50;44.30
75105;DHT22;64778;47.314;8.466;2023-02-22T14:37:02;15.60;50.20
75105;DHT22;64778;47.314;8.466;2023-02-22T14:39:45;15.30;51.20
75105;DHT22;64778;47.314;8.466;2023-02-22T14:42:16;15.00;53.00
75105;DHT22;64778;47.314;8.466;2023-02-22T14:50:24;14.20;55.00
75105;DHT22;64778;47.314;8.466;2023-02-22T14:53:04;14.30;56.40
75105;DHT22;64778;47.314;8.466;2023-02-22T14:55:36;14.50;54.80
75105;DHT22;64778;47.314;8.466;2023-02-22T15:00:45;14.10;56.70
75105;DHT22;64778;47.314;8.466;2023-02-22T15:06:21;14.10;56.50
75105;DHT22;64778;47.314;8.466;2023-02-22T15:09:07;14.10;57.30
75105;DHT22;64778;47.314;8.466;2023-02-22T15:11:33;14.00;57.60
75105;DHT22;64778;47.314;8.466;2023-02-22T15:14:01;13.60;59.00
75105;DHT22;64778;47.314;8.466;2023-02-22T15:16:31;13.60;59.40
75105;DHT22;64778;47.314;8.466;2023-02-22T15:19:03;13.50;59.80
75105;DHT22;64778;47.314;8.466;2023-02-22T15:21:29;13.30;60.20
75105;DHT22;64778;47.314;8.466;2023-02-22T15:24:04;13.50;60.70
75105;DHT22;64778;47.314;8.466;2023-02-22T15:26:40;13.40;60.90
75105;DHT22;64778;47.314;8.466;2023-02-22T15:29:34;13.30;61.00
75105;DHT22;64778;47.314;8.466;2023-02-22T15:32:18;13.30;61.50
75105;DHT22;64778;47.314;8.466;2023-02-22T15:34:46;13.20;61.90
75105;DHT22;64778;47.314;8.466;2023-02-22T15:37:21;13.30;62.00
75105;DHT22;64778;47.314;8.466;2023-02-22T15:39:52;13.30;62.10
75105;DHT22;64778;47.314;8.466;2023-02-22T15:42:25;13.50;62.20
75105;DHT22;64778;47.314;8.466;2023-02-22T15:44:53;13.60;62.20
75105;DHT22;64778;47.314;8.466;2023-02-22T15:47:26;13.70;62.00
75105;DHT22;64778;47.314;8.466;2023-02-22T15:52:53;13.70;61.40
75105;DHT22;64778;47.314;8.466;2023-02-22T15:55:34;13.70;61.60
75105;DHT22;64778;47.314;8.466;2023-02-22T16:00:40;13.50;62.10
75105;DHT22;64778;47.314;8.466;2023-02-22T16:03:19;13.40;62.30
75105;DHT22;64778;47.314;8.466;2023-02-22T16:05:54;13.30;62.70
75105;DHT22;64778;47.314;8.466;2023-02-22T16:08:23;13.10;63.90
75105;DHT22;64778;47.314;8.466;2023-02-22T16:11:03;12.90;64.20
75105;DHT22;64778;47.314;8.466;2023-02-22T16:13:41;12.60;64.90
75105;DHT22;64778;47.314;8.466;2023-02-22T16:18:44;12.60;65.80
75105;DHT22;64778;47.314;8.466;2023-02-22T16:21:14;12.60;66.60
75105;DHT22;64778;47.314;8.466;2023-02-22T16:26:27;12.50;66.60
75105;DHT22;64778;47.314;8.466;2023-02-22T16:29:04;12.60;66.70
75105;DHT22;64778;47.314;8.466;2023-02-22T16:31:37;12.50;66.90
75105;DHT22;64778;47.314;8.466;2023-02-22T16:34:05;12.40;67.30
75105;DHT22;64778;47.314;8.466;2023-02-22T16:36:41;12.40;67.80
75105;DHT22;64778;47.314;8.466;2023-02-22T16:39:27;12.30;67.80
75105;DHT22;64778;47.314;8.466;2023-02-22T16:41:55;12.20;68.00
75105;DHT22;64778;47.314;8.466;2023-02-22T16:44:22;12.00;68.60
75105;DHT22;64778;47.314;8.466;2023-02-22T16:46:57;11.50;70.20
75105;DHT22;64778;47.314;8.466;2023-02-22T16:49:22;11.40;70.80
75105;DHT22;64778;47.314;8.466;2023-02-22T16:51:49;11.30;71.30
75105;DHT22;64778;47.314;8.466;2023-02-22T16:54:29;11.20;71.80
75105;DHT22;64778;47.314;8.466;2023-02-22T16:57:00;11.30;72.00
75105;DHT22;64778;47.314;8.466;2023-02-22T16:59:27;11.30;72.00
75105;DHT22;64778;47.314;8.466;2023-02-22T17:01:55;11.20;72.20
75105;DHT22;64778;47.314;8.466;2023-02-22T17:04:25;11.20;72.30
75105;DHT22;64778;47.314;8.466;2023-02-22T17:06:53;11.20;72.50
75105;DHT22;64778;47.314;8.466;2023-02-22T17:09:19;11.10;72.80
75105;DHT22;64778;47.314;8.466;2023-02-22T17:11:47;11.10;73.00
75105;DHT22;64778;47.314;8.466;2023-02-22T17:14:19;11.10;73.10
75105;DHT22;64778;47.314;8.466;2023-02-22T17:16:51;11.10;73.30
75105;DHT22;64778;47.314;8.466;2023-02-22T17:19:19;11.00;73.40
75105;DHT22;64778;47.314;8.466;2023-02-22T17:21:50;11.00;73.50
75105;DHT22;64778;47.314;8.466;2023-02-22T17:24:20;10.90;73.90
75105;DHT22;64778;47.314;8.466;2023-02-22T17:26:56;10.90;73.80
75105;DHT22;64778;47.314;8.466;2023-02-22T17:29:23;10.90;74.20
75105;DHT22;64778;47.314;8.466;2023-02-22T17:31:51;10.90;74.30
75105;DHT22;64778;47.314;8.466;2023-02-22T17:34:17;10.90;74.40
75105;DHT22;64778;47.314;8.466;2023-02-22T17:36:42;10.80;74.80
75105;DHT22;64778;47.314;8.466;2023-02-22T17:39:10;10.90;75.00
75105;DHT22;64778;47.314;8.466;2023-02-22T17:41:37;10.80;75.20
75105;DHT22;64778;47.314;8.466;2023-02-22T17:44:02;10.90;75.40
75105;DHT22;64778;47.314;8.466;2023-02-22T17:46:28;10.90;75.50
75105;DHT22;64778;47.314;8.466;2023-02-22T17:48:58;10.80;75.50
75105;DHT22;64778;47.314;8.466;2023-02-22T17:51:26;10.80;75.90
75105;DHT22;64778;47.314;8.466;2023-02-22T17:53:52;10.80;76.00
75105;DHT22;64778;47.314;8.466;2023-02-22T17:56:18;10.80;76.10
75105;DHT22;64778;47.314;8.466;2023-02-22T17:58:49;10.80;76.30
75105;DHT22;64778;47.314;8.466;2023-02-22T18:01:23;10.80;76.30
75105;DHT22;64778;47.314;8.466;2023-02-22T18:03:53;10.80;76.40
75105;DHT22;64778;47.314;8.466;2023-02-22T18:06:23;10.80;76.50
75105;DHT22;64778;47.314;8.466;2023-02-22T18:08:51;10.80;76.50
75105;DHT22;64778;47.314;8.466;2023-02-22T18:11:18;10.80;76.50
75105;DHT22;64778;47.314;8.466;2023-02-22T18:13:45;10.80;76.30
75105;DHT22;64778;47.314;8.466;2023-02-22T18:16:11;10.90;76.80
75105;DHT22;64778;47.314;8.466;2023-02-22T18:18:37;10.80;76.90
75105;DHT22;64778;47.314;8.466;2023-02-22T18:21:05;10.80;77.10
75105;DHT22;64778;47.314;8.466;2023-02-22T18:23:32;10.80;77.30
75105;DHT22;64778;47.314;8.466;2023-02-22T18:26:00;10.80;77.10
75105;DHT22;64778;47.314;8.466;2023-02-22T18:28:28;10.80;76.90
75105;DHT22;64778;47.314;8.466;2023-02-22T18:30:57;10.60;77.50
75105;DHT22;64778;47.314;8.466;2023-02-22T18:33:26;10.60;78.00
75105;DHT22;64778;47.314;8.466;2023-02-22T18:35:54;10.50;78.50
75105;DHT22;64778;47.314;8.466;2023-02-22T18:38:23;10.40;79.20
75105;DHT22;64778;47.314;8.466;2023-02-22T18:41:02;10.30;79.80
75105;DHT22;64778;47.314;8.466;2023-02-22T18:43:29;10.20;80.10
75105;DHT22;64778;47.314;8.466;2023-02-22T18:46:14;10.20;79.90
75105;DHT22;64778;47.314;8.466;2023-02-22T18:48:40;10.20;79.70
75105;DHT22;64778;47.314;8.466;2023-02-22T18:51:09;10.20;79.30
75105;DHT22;64778;47.314;8.466;2023-02-22T18:53:36;10.30;79.10
75105;DHT22;64778;47.314;8.466;2023-02-22T18:56:04;10.30;79.00
75105;DHT22;64778;47.314;8.466;2023-02-22T18:58:32;10.40;79.00
75105;DHT22;64778;47.314;8.466;2023-02-22T19:01:01;10.40;79.10